createdAt,value
2023-02-08T00:00:24.264Z,53.45
2023-02-08T00:02:50.103Z,53.88
2023-02-08T00:05:17.344Z,54.69
2023-02-08T00:07:43.317Z,54.62
2023-02-08T00:10:09.936Z,55.95
2023-02-08T00:12:36.943Z,55.79
2023-02-08T00:15:03.769Z,55.53
2023-02-08T00:17:30.221Z,56.35
2023-02-08T00:19:56.522Z,51.01
2023-02-08T00:22:22.587Z,49.32
2023-02-08T00:24:53.239Z,48.62
2023-02-08T00:27:19.112Z,47.53
2023-02-08T00:29:44.944Z,47.45
2023-02-08T00:32:10.763Z,45.85
2023-02-08T00:34:37.989Z,45.48
2023-02-08T00:37:04.932Z,46.52
2023-02-08T00:39:31.136Z,47.71
2023-02-08T00:41:57.448Z,46.97
2023-02-08T00:44:23.530Z,46.97
2023-02-08T00:46:50.131Z,46.72
2023-02-08T00:49:16.111Z,45.12
2023-02-08T00:51:41.948Z,45.83
2023-02-08T00:54:14.151Z,46.33
2023-02-08T00:56:40.003Z,45.70
2023-02-08T00:59:05.838Z,45.19
2023-02-08T01:01:33.181Z,45.63
2023-02-08T01:03:58.988Z,44.96
2023-02-08T01:06:24.818Z,44.05
2023-02-08T01:08:50.582Z,44.24
2023-02-08T01:11:21.565Z,43.51
2023-02-08T01:13:48.228Z,43.60
2023-02-08T01:16:17.082Z,43.74
2023-02-08T01:18:45.422Z,44.59
2023-02-08T01:21:14.679Z,44.21
2023-02-08T01:23:40.835Z,43.69
2023-02-08T01:26:08.254Z,43.80
2023-02-08T01:28:34.809Z,44.11
2023-02-08T01:31:07.359Z,43.81
2023-02-08T01:33:33.892Z,43.82
2023-02-08T01:35:59.717Z,43.69
2023-02-08T01:38:25.881Z,44.21
2023-02-08T01:40:51.869Z,44.46
2023-02-08T01:43:27.417Z,43.75
2023-02-08T01:45:53.440Z,43.97
2023-02-08T01:48:34.547Z,44.17
2023-02-08T01:51:29.667Z,44.29
2023-02-08T01:53:57.343Z,43.95
2023-02-08T01:56:29.003Z,43.99
2023-02-08T01:58:59.496Z,44.81
2023-02-08T02:01:28.100Z,44.50
2023-02-08T02:03:54.913Z,44.42
2023-02-08T02:06:29.230Z,45.13
2023-02-08T02:09:18.110Z,44.49
2023-02-08T02:11:44.003Z,44.47
2023-02-08T02:14:11.673Z,44.52
2023-02-08T02:16:38.030Z,45.00
2023-02-08T02:19:10.064Z,44.98
2023-02-08T02:21:39.017Z,44.87
2023-02-08T02:24:22.447Z,45.06
2023-02-08T02:27:16.643Z,45.58
2023-02-08T02:30:15.180Z,45.63
2023-02-08T02:33:21.060Z,46.04
2023-02-08T02:36:02.271Z,46.50
2023-02-08T02:38:51.220Z,46.90
2023-02-08T02:41:54.985Z,47.27
2023-02-08T02:44:42.417Z,45.62
2023-02-08T02:47:19.178Z,45.83
2023-02-08T02:50:00.452Z,44.56
2023-02-08T02:52:38.282Z,43.91
2023-02-08T02:55:12.785Z,43.69
2023-02-08T02:57:41.098Z,45.29
2023-02-08T03:00:10.508Z,46.46
2023-02-08T03:02:37.398Z,48.20
2023-02-08T03:05:06.039Z,47.41
2023-02-08T03:07:58.101Z,47.46
2023-02-08T03:10:54.413Z,47.48
2023-02-08T03:13:56.345Z,48.06
2023-02-08T03:17:07.412Z,49.47
2023-02-08T03:20:11.753Z,47.21
2023-02-08T03:22:45.324Z,45.64
2023-02-08T03:25:26.506Z,46.06
2023-02-08T03:27:57.653Z,45.48
2023-02-08T03:30:53.606Z,45.60
2023-02-08T03:33:39.994Z,44.83
2023-02-08T03:36:19.153Z,44.66
2023-02-08T03:38:49.919Z,44.62
2023-02-08T03:41:25.871Z,44.57
2023-02-08T03:44:10.354Z,44.45
2023-02-08T03:46:59.075Z,44.77
2023-02-08T03:49:31.455Z,44.96
2023-02-08T03:52:01.688Z,45.57
2023-02-08T03:54:30.984Z,45.55
2023-02-08T03:57:12.153Z,45.63
2023-02-08T03:59:41.398Z,46.10
2023-02-08T04:02:12.104Z,46.44
2023-02-08T04:04:42.952Z,46.68
2023-02-08T04:07:09.453Z,46.45
2023-02-08T04:09:37.260Z,47.38
2023-02-08T04:12:04.920Z,46.54
2023-02-08T04:14:30.737Z,46.67
2023-02-08T04:16:56.780Z,46.57
2023-02-08T04:19:22.623Z,46.17
2023-02-08T04:21:48.484Z,45.21
2023-02-08T04:24:14.346Z,44.85
2023-02-08T04:26:40.248Z,43.64
2023-02-08T04:29:06.140Z,43.71
2023-02-08T04:31:32.103Z,42.71
2023-02-08T04:33:58.070Z,43.90
2023-02-08T04:36:23.953Z,42.97
2023-02-08T04:38:49.864Z,43.26
2023-02-08T04:41:16.139Z,43.87
2023-02-08T04:43:42.013Z,43.98
2023-02-08T04:46:08.268Z,44.41
2023-02-08T04:48:34.218Z,44.42
2023-02-08T04:51:00.099Z,45.04
2023-02-08T04:53:26.186Z,45.05
2023-02-08T04:55:52.434Z,45.00
2023-02-08T04:58:18.476Z,45.45
2023-02-08T05:00:45.020Z,45.33
2023-02-08T05:03:11.250Z,45.95
2023-02-08T05:05:37.173Z,45.52
2023-02-08T05:08:03.659Z,46.18
2023-02-08T05:10:29.699Z,46.71
2023-02-08T05:12:55.664Z,46.13
2023-02-08T05:15:21.759Z,46.67
2023-02-08T05:17:47.984Z,46.88
2023-02-08T05:20:14.500Z,46.73
2023-02-08T05:22:40.412Z,47.48
2023-02-08T05:25:07.332Z,47.49
2023-02-08T05:27:33.730Z,48.09
2023-02-08T05:30:02.346Z,47.68
2023-02-08T05:32:28.178Z,47.81
2023-02-08T05:34:54.134Z,48.84
2023-02-08T05:37:20.004Z,48.82
2023-02-08T05:39:45.881Z,48.90
2023-02-08T05:42:11.827Z,48.74
2023-02-08T05:44:37.851Z,48.56
2023-02-08T05:47:03.852Z,47.75
2023-02-08T05:49:29.869Z,48.20
2023-02-08T05:51:55.786Z,48.37
2023-02-08T05:54:21.862Z,48.03
2023-02-08T05:56:47.888Z,48.78
2023-02-08T05:59:13.822Z,47.77
2023-02-08T06:01:40.344Z,47.76
2023-02-08T06:04:06.341Z,48.12
2023-02-08T06:06:32.486Z,47.63
2023-02-08T06:08:58.369Z,47.25
2023-02-08T06:11:24.221Z,47.63
2023-02-08T06:13:50.154Z,48.48
2023-02-08T06:16:18.871Z,48.82
2023-02-08T06:18:45.663Z,48.67
2023-02-08T06:21:12.154Z,48.12
2023-02-08T06:23:38.059Z,47.94
2023-02-08T06:26:04.237Z,48.08
2023-02-08T06:28:30.167Z,48.01
2023-02-08T06:30:56.117Z,47.34
2023-02-08T06:33:22.073Z,47.70
2023-02-08T06:35:51.469Z,47.61
2023-02-08T06:38:17.442Z,47.77
2023-02-08T06:40:46.068Z,47.89
2023-02-08T06:43:11.909Z,47.36
2023-02-08T06:45:37.817Z,47.69
2023-02-08T06:48:03.965Z,47.50
2023-02-08T06:50:30.341Z,47.79
2023-02-08T06:52:56.342Z,47.61
2023-02-08T06:55:22.260Z,47.67
2023-02-08T06:57:48.080Z,47.52
2023-02-08T07:00:14.378Z,47.47
2023-02-08T07:02:40.324Z,47.18
2023-02-08T07:05:06.687Z,47.45
2023-02-08T07:07:32.565Z,47.35
2023-02-08T07:09:58.508Z,47.83
2023-02-08T07:12:24.439Z,46.98
2023-02-08T07:14:50.325Z,46.96
2023-02-08T07:17:16.254Z,46.81
2023-02-08T07:19:42.118Z,46.17
2023-02-08T07:22:08.004Z,45.59
2023-02-08T07:24:38.652Z,45.75
2023-02-08T07:27:06.093Z,44.86
2023-02-08T07:29:35.714Z,44.57
2023-02-08T07:32:03.691Z,44.26
2023-02-08T07:34:31.992Z,45.23
2023-02-08T07:36:58.166Z,44.14
2023-02-08T07:39:24.489Z,43.23
2023-02-08T07:41:50.498Z,43.74
2023-02-08T07:44:16.474Z,42.30
2023-02-08T07:46:42.473Z,43.04
2023-02-08T07:49:08.433Z,42.53
2023-02-08T07:51:34.368Z,42.26
2023-02-08T07:54:00.287Z,42.90
2023-02-08T07:56:26.422Z,42.61
2023-02-08T07:58:52.289Z,42.63
2023-02-08T08:01:22.425Z,42.74
2023-02-08T08:03:52.166Z,41.09
2023-02-08T08:06:19.847Z,38.67
2023-02-08T08:08:47.082Z,38.50
2023-02-08T08:11:14.727Z,37.38
2023-02-08T08:13:40.657Z,37.40
2023-02-08T08:16:06.846Z,38.36
2023-02-08T08:18:32.679Z,37.30
2023-02-08T08:20:58.609Z,36.93
2023-02-08T08:23:24.573Z,36.35
2023-02-08T08:25:50.424Z,36.44
2023-02-08T08:28:16.537Z,36.69
2023-02-08T08:30:44.094Z,36.11
2023-02-08T08:33:10.836Z,38.09
2023-02-08T08:35:37.144Z,38.82
2023-02-08T08:38:02.980Z,38.82
2023-02-08T08:40:28.875Z,38.65
2023-02-08T08:42:56.471Z,38.86
2023-02-08T08:45:22.690Z,39.03
2023-02-08T08:47:48.551Z,38.99
2023-02-08T08:50:14.600Z,38.66
2023-02-08T08:52:42.012Z,36.76
2023-02-08T08:55:08.668Z,37.59
2023-02-08T08:57:34.533Z,36.69
2023-02-08T09:00:00.441Z,35.91
2023-02-08T09:02:26.358Z,35.17
2023-02-08T09:04:52.285Z,34.66
2023-02-08T09:07:18.281Z,34.97
2023-02-08T09:09:47.301Z,35.40
2023-02-08T09:12:15.103Z,35.26
2023-02-08T09:14:41.757Z,35.75
2023-02-08T09:17:07.701Z,35.56
2023-02-08T09:19:33.565Z,35.22
2023-02-08T09:21:59.988Z,34.00
2023-02-08T09:24:25.905Z,34.18
2023-02-08T09:26:51.779Z,33.77
2023-02-08T09:29:18.221Z,34.22
2023-02-08T09:31:44.248Z,35.25
2023-02-08T09:34:10.134Z,34.07
2023-02-08T09:36:38.818Z,34.31
2023-02-08T09:39:15.213Z,34.15
2023-02-08T09:42:15.235Z,34.71
2023-02-08T09:44:44.002Z,33.67
2023-02-08T09:47:33.124Z,33.37
2023-02-08T09:50:23.330Z,31.99
2023-02-08T09:52:57.391Z,32.64
2023-02-08T09:55:31.847Z,33.03
2023-02-08T09:58:02.690Z,33.09
2023-02-08T10:00:40.137Z,30.68
2023-02-08T10:03:21.277Z,28.36
2023-02-08T10:05:47.547Z,25.69
2023-02-08T10:08:13.483Z,21.89
2023-02-08T10:11:17.959Z,16.27
2023-02-08T10:14:08.133Z,11.24
2023-02-08T10:16:40.140Z,9.66
2023-02-08T10:19:33.607Z,8.42
2023-02-08T10:22:13.333Z,7.73
2023-02-08T10:25:18.834Z,6.84
2023-02-08T10:28:03.546Z,7.22
2023-02-08T10:30:38.035Z,7.40
2023-02-08T10:33:13.085Z,7.51
2023-02-08T10:35:44.351Z,7.70
2023-02-08T10:38:19.469Z,7.18
2023-02-08T10:40:48.373Z,7.21
2023-02-08T10:43:39.768Z,6.76
2023-02-08T10:46:11.971Z,6.58
2023-02-08T10:49:04.188Z,6.24
2023-02-08T10:51:30.275Z,6.57
2023-02-08T10:53:57.183Z,5.86
2023-02-08T10:56:29.615Z,6.08
2023-02-08T10:58:58.650Z,4.96
2023-02-08T11:01:26.912Z,4.89
2023-02-08T11:04:09.555Z,5.46
2023-02-08T11:06:36.482Z,5.56
2023-02-08T11:09:03.752Z,5.33
2023-02-08T11:11:36.159Z,5.65
2023-02-08T11:14:09.024Z,5.42
2023-02-08T11:16:37.564Z,5.78
2023-02-08T11:19:07.221Z,5.21
2023-02-08T11:21:39.560Z,5.14
2023-02-08T11:24:14.543Z,5.62
2023-02-08T11:26:41.196Z,6.17
2023-02-08T11:29:13.173Z,6.69
2023-02-08T11:31:41.238Z,6.40
2023-02-08T11:34:09.865Z,7.23
2023-02-08T11:36:42.600Z,5.46
2023-02-08T11:39:40.181Z,6.29
2023-02-08T11:42:07.161Z,6.36
2023-02-08T11:44:36.576Z,7.33
2023-02-08T11:47:05.716Z,6.55
2023-02-08T11:49:40.586Z,6.54
2023-02-08T11:52:19.792Z,7.49
2023-02-08T11:54:46.251Z,7.00
2023-02-08T11:57:21.210Z,7.40
2023-02-08T11:59:51.736Z,7.20
2023-02-08T12:02:30.788Z,8.22
2023-02-08T12:04:58.751Z,7.96
2023-02-08T12:08:03.032Z,8.01
2023-02-08T12:10:54.122Z,7.98
2023-02-08T12:13:31.938Z,8.82
2023-02-08T12:15:59.210Z,10.04
2023-02-08T12:18:43.095Z,10.46
2023-02-08T12:21:21.303Z,10.91
2023-02-08T12:23:56.967Z,9.48
2023-02-08T12:26:26.996Z,9.21
2023-02-08T12:29:11.612Z,8.63
2023-02-08T12:31:59.495Z,8.59
2023-02-08T12:35:04.468Z,9.15
2023-02-08T12:38:07.602Z,8.81
2023-02-08T12:40:54.717Z,8.92
2023-02-08T12:44:12.475Z,8.97
2023-02-08T12:47:19.544Z,8.10
2023-02-08T12:49:48.331Z,7.88
2023-02-08T12:52:32.499Z,7.33
2023-02-08T12:55:04.580Z,7.45
2023-02-08T12:57:32.460Z,7.25
2023-02-08T13:00:06.906Z,7.11
2023-02-08T13:02:56.978Z,7.70
2023-02-08T13:05:27.602Z,8.27
2023-02-08T13:08:18.392Z,8.02
2023-02-08T13:10:49.279Z,7.45
2023-02-08T13:13:27.753Z,7.56
2023-02-08T13:16:08.698Z,8.01
2023-02-08T13:18:39.506Z,8.50
2023-02-08T13:21:14.837Z,8.33
2023-02-08T13:23:52.014Z,8.39
2023-02-08T13:26:30.802Z,9.10
2023-02-08T13:29:01.814Z,8.42
2023-02-08T13:31:40.473Z,9.53
2023-02-08T13:34:16.927Z,9.86
2023-02-08T13:36:51.412Z,10.09
2023-02-08T13:39:45.917Z,9.98
2023-02-08T13:42:33.110Z,10.29
2023-02-08T13:45:00.786Z,10.73
2023-02-08T13:47:28.145Z,10.34
2023-02-08T13:50:00.344Z,11.60
2023-02-08T13:52:47.689Z,11.31
2023-02-08T13:55:37.514Z,13.28
2023-02-08T13:58:15.688Z,16.56
2023-02-08T14:00:54.294Z,18.97
2023-02-08T14:03:23.165Z,20.64
2023-02-08T14:05:57.291Z,22.45
2023-02-08T14:08:38.314Z,22.86
2023-02-08T14:11:04.265Z,24.07
2023-02-08T14:13:47.182Z,24.93
2023-02-08T14:16:35.210Z,25.60
2023-02-08T14:19:20.313Z,25.67
2023-02-08T14:22:01.980Z,25.10
2023-02-08T14:24:36.706Z,24.87
2023-02-08T14:27:21.882Z,26.55
2023-02-08T14:30:04.366Z,27.96
2023-02-08T14:32:35.220Z,27.47
2023-02-08T14:35:20.188Z,26.19
2023-02-08T14:37:47.853Z,26.35
2023-02-08T14:40:20.738Z,24.67
2023-02-08T14:43:01.411Z,25.48
2023-02-08T14:45:27.452Z,24.79
2023-02-08T14:47:57.085Z,25.15
2023-02-08T14:50:30.226Z,24.83
2023-02-08T14:53:28.720Z,25.11
2023-02-08T14:56:04.568Z,24.62
2023-02-08T14:58:34.249Z,25.91
2023-02-08T15:01:07.252Z,25.51
2023-02-08T15:03:34.631Z,25.89
2023-02-08T15:06:26.697Z,26.36
2023-02-08T15:08:54.329Z,25.90
2023-02-08T15:11:27.318Z,25.51
2023-02-08T15:13:56.312Z,27.33
2023-02-08T15:16:27.145Z,26.70
2023-02-08T15:18:53.145Z,26.81
2023-02-08T15:21:23.932Z,26.95
2023-02-08T15:23:59.493Z,27.24
2023-02-08T15:26:25.908Z,28.14
2023-02-08T15:28:52.542Z,28.28
2023-02-08T15:31:26.669Z,27.49
2023-02-08T15:33:53.821Z,27.39
2023-02-08T15:36:31.625Z,26.62
2023-02-08T15:39:01.686Z,26.98
2023-02-08T15:41:37.474Z,27.15
2023-02-08T15:44:18.900Z,27.38
2023-02-08T15:46:46.048Z,27.15
2023-02-08T15:49:34.718Z,27.69
2023-02-08T15:52:01.564Z,27.76
2023-02-08T15:54:27.525Z,28.01
2023-02-08T15:57:01.761Z,26.96
2023-02-08T15:59:32.102Z,27.84
2023-02-08T16:02:05.172Z,27.42
2023-02-08T16:04:31.091Z,28.06
2023-02-08T16:06:59.338Z,28.74
2023-02-08T16:09:29.635Z,28.90
2023-02-08T16:11:59.716Z,28.23
2023-02-08T16:14:29.314Z,28.09
2023-02-08T16:16:57.422Z,29.18
2023-02-08T16:19:31.986Z,29.44
2023-02-08T16:22:13.154Z,30.02
2023-02-08T16:24:38.992Z,29.63
2023-02-08T16:27:24.345Z,30.19
2023-02-08T16:29:50.338Z,30.61
2023-02-08T16:32:22.386Z,31.52
2023-02-08T16:34:48.389Z,31.14
2023-02-08T16:37:22.542Z,32.17
2023-02-08T16:40:38.192Z,32.22
2023-02-08T16:43:31.149Z,32.26
2023-02-08T16:46:15.218Z,32.29
2023-02-08T16:48:43.500Z,32.69
2023-02-08T16:51:15.964Z,33.20
2023-02-08T16:53:42.893Z,33.69
2023-02-08T16:56:10.636Z,33.92
2023-02-08T16:58:37.097Z,33.82
2023-02-08T17:01:03.849Z,34.55
2023-02-08T17:03:31.947Z,34.56
2023-02-08T17:06:00.296Z,34.70
2023-02-08T17:08:26.733Z,35.28
2023-02-08T17:10:57.921Z,36.05
2023-02-08T17:13:26.516Z,35.99
2023-02-08T17:15:53.082Z,36.54
2023-02-08T17:18:20.348Z,37.13
2023-02-08T17:20:46.805Z,37.46
2023-02-08T17:23:15.158Z,37.05
2023-02-08T17:25:41.780Z,36.56
2023-02-08T17:28:15.653Z,37.35
2023-02-08T17:30:42.933Z,37.39
2023-02-08T17:33:17.295Z,37.12
2023-02-08T17:35:50.457Z,38.04
2023-02-08T17:38:18.280Z,38.79
2023-02-08T17:40:44.730Z,39.36
2023-02-08T17:43:12.370Z,38.89
2023-02-08T17:45:39.971Z,38.51
2023-02-08T17:48:06.756Z,38.42
2023-02-08T17:50:33.234Z,38.02
2023-02-08T17:52:59.161Z,39.76
2023-02-08T17:55:26.830Z,39.38
2023-02-08T17:57:57.899Z,39.26
2023-02-08T18:00:25.838Z,41.66
2023-02-08T18:02:54.627Z,41.72
2023-02-08T18:05:24.044Z,40.90
2023-02-08T18:07:51.441Z,40.68
2023-02-08T18:10:18.492Z,42.05
2023-02-08T18:12:44.571Z,42.33
2023-02-08T18:15:19.028Z,41.72
2023-02-08T18:17:46.085Z,41.70
2023-02-08T18:20:14.038Z,41.08
2023-02-08T18:22:44.338Z,41.17
2023-02-08T18:25:12.562Z,41.16
2023-02-08T18:27:38.945Z,42.02
2023-02-08T18:30:05.894Z,41.57
2023-02-08T18:32:32.072Z,42.99
2023-02-08T18:34:58.598Z,42.93
2023-02-08T18:37:24.968Z,42.82
2023-02-08T18:39:51.696Z,42.25
2023-02-08T18:42:18.076Z,43.20
2023-02-08T18:44:44.102Z,42.40
2023-02-08T18:47:10.095Z,41.92
2023-02-08T18:49:39.849Z,42.04
2023-02-08T18:52:10.976Z,42.26
2023-02-08T18:54:38.394Z,41.78
2023-02-08T18:57:05.647Z,42.63
2023-02-08T18:59:32.868Z,42.49
2023-02-08T19:02:00.966Z,43.28
2023-02-08T19:04:27.527Z,43.01
2023-02-08T19:06:53.725Z,43.08
2023-02-08T19:09:19.615Z,42.95
2023-02-08T19:11:45.587Z,43.20
2023-02-08T19:14:15.208Z,42.89
2023-02-08T19:16:42.468Z,44.23
2023-02-08T19:19:09.532Z,43.79
2023-02-08T19:21:35.807Z,44.29
2023-02-08T19:24:02.359Z,44.43
2023-02-08T19:26:32.036Z,45.41
2023-02-08T19:29:02.796Z,45.28
2023-02-08T19:31:30.488Z,46.18
2023-02-08T19:34:00.274Z,47.18
2023-02-08T19:36:33.741Z,47.29
2023-02-08T19:39:00.846Z,48.10
2023-02-08T19:41:35.150Z,48.14
2023-02-08T19:44:04.014Z,47.88
2023-02-08T19:46:32.406Z,48.52
2023-02-08T19:49:00.103Z,49.64
2023-02-08T19:51:28.573Z,49.22
2023-02-08T19:53:56.654Z,49.83
2023-02-08T19:56:22.940Z,50.55
2023-02-08T19:58:48.947Z,50.11
2023-02-08T20:01:17.690Z,49.72
2023-02-08T20:03:44.295Z,49.71
2023-02-08T20:06:28.642Z,49.25
2023-02-08T20:08:55.210Z,50.48
2023-02-08T20:11:28.285Z,49.93
2023-02-08T20:13:56.671Z,51.53
2023-02-08T20:16:22.942Z,51.09
2023-02-08T20:18:49.725Z,50.84
2023-02-08T20:21:16.408Z,51.71
2023-02-08T20:23:43.164Z,51.01
2023-02-08T20:26:17.003Z,50.90
2023-02-08T20:28:46.005Z,51.31
2023-02-08T20:31:16.165Z,51.52
2023-02-08T20:33:42.588Z,52.07
2023-02-08T20:36:11.525Z,52.47
2023-02-08T20:38:37.882Z,53.16
2023-02-08T20:41:05.871Z,52.18
2023-02-08T20:43:32.992Z,52.31
2023-02-08T20:45:59.547Z,51.39
2023-02-08T20:48:25.507Z,51.55
2023-02-08T20:50:51.427Z,51.49
2023-02-08T20:53:17.558Z,51.25
2023-02-08T20:55:44.109Z,51.08
2023-02-08T20:58:10.190Z,51.33
2023-02-08T21:00:41.820Z,51.56
2023-02-08T21:03:08.936Z,52.13
2023-02-08T21:05:34.840Z,51.77
2023-02-08T21:08:00.691Z,52.65
2023-02-08T21:10:26.656Z,51.75
2023-02-08T21:12:52.752Z,52.91
2023-02-08T21:15:18.680Z,52.38
2023-02-08T21:17:44.662Z,52.84
2023-02-08T21:20:12.159Z,53.05
2023-02-08T21:22:38.590Z,52.70
2023-02-08T21:25:04.905Z,52.92
2023-02-08T21:27:30.823Z,53.08
2023-02-08T21:29:56.985Z,52.71
2023-02-08T21:32:23.312Z,52.97
2023-02-08T21:34:51.334Z,52.69
2023-02-08T21:37:17.974Z,53.11
2023-02-08T21:39:45.972Z,52.54
2023-02-08T21:42:13.142Z,52.98
2023-02-08T21:44:39.595Z,53.19
2023-02-08T21:47:05.785Z,52.97
2023-02-08T21:49:50.393Z,53.14
2023-02-08T21:52:35.220Z,53.12
2023-02-08T21:55:01.179Z,52.88
2023-02-08T21:57:29.563Z,53.33
2023-02-08T22:00:00.747Z,53.25
2023-02-08T22:02:29.289Z,53.19
2023-02-08T22:05:16.937Z,53.37
2023-02-08T22:07:47.684Z,53.06
2023-02-08T22:10:16.731Z,53.11
2023-02-08T22:12:42.862Z,53.33
2023-02-08T22:15:10.662Z,54.06
2023-02-08T22:17:36.788Z,53.57
2023-02-08T22:20:04.215Z,53.91
2023-02-08T22:22:30.214Z,53.28
2023-02-08T22:24:56.150Z,53.94
2023-02-08T22:27:22.122Z,54.38
2023-02-08T22:29:48.075Z,54.43
2023-02-08T22:32:16.313Z,54.36
2023-02-08T22:34:43.708Z,54.79
2023-02-08T22:37:10.504Z,54.55
2023-02-08T22:39:36.489Z,54.38
2023-02-08T22:42:07.739Z,54.61
2023-02-08T22:44:37.564Z,55.20
2023-02-08T22:47:07.551Z,56.29
2023-02-08T22:49:34.453Z,56.56
2023-02-08T22:52:00.573Z,56.52
2023-02-08T22:54:26.513Z,56.23
2023-02-08T22:56:52.503Z,57.14
2023-02-08T22:59:18.459Z,56.86
2023-02-08T23:01:44.355Z,56.40
2023-02-08T23:04:10.376Z,57.04
2023-02-08T23:06:36.396Z,57.07
2023-02-08T23:09:03.911Z,57.39
2023-02-08T23:11:29.993Z,58.36
2023-02-08T23:13:55.894Z,58.70
2023-02-08T23:16:21.967Z,58.58
2023-02-08T23:18:47.967Z,58.68
2023-02-08T23:21:16.743Z,59.09
2023-02-08T23:23:43.493Z,58.83
2023-02-08T23:26:14.100Z,59.96
2023-02-08T23:28:40.298Z,60.15
2023-02-08T23:31:11.790Z,60.41
2023-02-08T23:33:38.668Z,59.88
2023-02-08T23:36:13.585Z,60.84
2023-02-08T23:38:39.792Z,61.14
2023-02-08T23:41:09.037Z,61.22
2023-02-08T23:43:35.627Z,61.08
2023-02-08T23:46:25.896Z,61.61
2023-02-08T23:48:52.496Z,62.45
2023-02-08T23:51:21.087Z,62.96
2023-02-08T23:53:50.260Z,63.46
2023-02-08T23:56:22.116Z,62.65
2023-02-08T23:58:50.896Z,63.69
